Terminal Aerodrome Forecast
Issued by NWS Wilmington, OH

Current Version | Previous Version | Graphics & Text | Print | Product List | Glossary On
Versions: 1 2 3 4 5 6 7 8 9 10 11 12 13 14 15 16 17 18 19
000
FTUS41 KILN 200544 AAA
TAFCMH
TAF AMD
KCMH 200544Z 2006/2106 00000KT P6SM OVC090
     FM201000 VRB03KT 5SM BR BKN008
     FM201300 22005KT P6SM BKN012
     FM201500 22005KT P6SM VCSH BKN022
     FM201700 24005KT P6SM VCSH BKN040
     FM202100 26005KT P6SM BKN060
     FM202300 04004KT P6SM SCT060=

USA.gov is the U.S. government's official web portal to all federal, state and local government web resources and services.